PWSweather.com
Personal Weather Stations
Station Observations
SD92115WX
El Cerrito Stoneybluff, San Diego, CA 92115

El Cerrito StoneybluffSan Diego, CA 92115

Lat: 32.754096, Lon: -117.066705

Elevation: 420

Station Type: Davis Vantage Vue

http://stoneybluff.com

High Low Average
Temperature 63.0°F17.2°C 54.7°F12.6°C 58.7°F14.8°C
Dew Point 57.4°F14.1°C 52.5°F11.4°C 54.3°F12.4°C
Winds 11.0 mph 17.7 kmh Calm Calm 3.0 mph S4.8 kmh S
Wind Gusts 18.1 mph29.1 kmh -- 6.0 mph9.7 kmh
Humidity 93% 71% 86%
Pressure 29.88 in1011.9 mb 29.77 in1008.1 mb -
Precipitation 0.04 in1.0 mm - -
Hour Temp Dew Point Humidity Winds Wind Gusts Pressure Precip Precip Rate Daily Precip Total
12:03 AM 57.6°F14.2°C 54.7°F12.6°C 90% Calm Calm -- 29.80 in1009.1 mb 0.00 in0.0 mm 0.00 in0.0 mm 0.00 in0.0 mm
12:08 AM 57.6°F14.2°C 54.7°F12.6°C 90% Calm Calm -- 29.80 in1009.1 mb 0.00 in0.0 mm 0.00 in0.0 mm 0.00 in0.0 mm
12:13 AM 57.4°F14.1°C 54.5°F12.5°C 90% Calm Calm 2.0 mph3.2 kmh 29.80 in1009.1 mb 0.00 in0.0 mm 0.00 in0.0 mm 0.00 in0.0 mm
12:18 AM 57.4°F14.1°C 54.9°F12.7°C 91% 1.1 mph S1.8 kmh S 2.0 mph3.2 kmh 29.80 in1009.1 mb 0.00 in0.0 mm 0.00 in0.0 mm 0.00 in0.0 mm
12:23 AM 57.4°F14.1°C 54.9°F12.7°C 91% 1.6 mph SSE2.6 kmh SSE 3.1 mph5.0 kmh 29.80 in1009.1 mb 0.00 in0.0 mm 0.00 in0.0 mm 0.00 in0.0 mm
12:28 AM 57.2°F14.0°C 54.7°F12.6°C 91% Calm Calm 2.0 mph3.2 kmh 29.80 in1009.1 mb 0.00 in0.0 mm 0.00 in0.0 mm 0.00 in0.0 mm
12:33 AM 57.0°F13.9°C 54.5°F12.5°C 91% Calm Calm 3.1 mph5.0 kmh 29.80 in1009.1 mb 0.00 in0.0 mm 0.00 in0.0 mm 0.00 in0.0 mm
12:38 AM 57.2°F14.0°C 54.7°F12.6°C 91% Calm Calm 1.1 mph1.8 kmh 29.80 in1009.1 mb 0.00 in0.0 mm 0.00 in0.0 mm 0.00 in0.0 mm
12:43 AM 57.0°F13.9°C 54.5°F12.5°C 91% Calm Calm -- 29.80 in1009.1 mb 0.00 in0.0 mm 0.00 in0.0 mm 0.00 in0.0 mm
12:48 AM 57.0°F13.9°C 54.7°F12.6°C 92% Calm Calm -- 29.79 in1008.8 mb 0.00 in0.0 mm 0.00 in0.0 mm 0.00 in0.0 mm
12:53 AM 56.8°F13.8°C 54.5°F12.5°C 92% Calm Calm -- 29.79 in1008.8 mb 0.00 in0.0 mm 0.00 in0.0 mm 0.00 in0.0 mm
12:58 AM 57.0°F13.9°C 54.7°F12.6°C 92% Calm Calm 2.0 mph3.2 kmh 29.80 in1009.1 mb 0.00 in0.0 mm 0.00 in0.0 mm 0.00 in0.0 mm
01:03 AM 56.8°F13.8°C 54.5°F12.5°C 92% 0.2 mph NE0.3 kmh NE 2.0 mph3.2 kmh 29.79 in1008.8 mb 0.00 in0.0 mm 0.00 in0.0 mm 0.00 in0.0 mm
01:08 AM 56.8°F13.8°C 54.5°F12.5°C 92% 0.2 mph N0.3 kmh N 1.1 mph1.8 kmh 29.79 in1008.8 mb 0.00 in0.0 mm 0.00 in0.0 mm 0.00 in0.0 mm
01:13 AM 56.8°F13.8°C 54.5°F12.5°C 92% Calm Calm -- 29.79 in1008.8 mb 0.00 in0.0 mm 0.00 in0.0 mm 0.00 in0.0 mm
01:18 AM 56.8°F13.8°C 54.5°F12.5°C 92% Calm Calm -- 29.79 in1008.8 mb 0.00 in0.0 mm 0.00 in0.0 mm 0.00 in0.0 mm
01:23 AM 56.8°F13.8°C 54.5°F12.5°C 92% Calm Calm -- 29.79 in1008.8 mb 0.00 in0.0 mm 0.00 in0.0 mm 0.00 in0.0 mm
01:28 AM 56.8°F13.8°C 54.5°F12.5°C 92% Calm Calm 1.1 mph1.8 kmh 29.79 in1008.8 mb 0.00 in0.0 mm 0.00 in0.0 mm 0.00 in0.0 mm
01:33 AM 56.8°F13.8°C 54.5°F12.5°C 92% Calm Calm 1.1 mph1.8 kmh 29.79 in1008.8 mb 0.00 in0.0 mm 0.00 in0.0 mm 0.00 in0.0 mm
01:38 AM 56.8°F13.8°C 54.5°F12.5°C 92% Calm Calm -- 29.80 in1009.1 mb 0.00 in0.0 mm 0.00 in0.0 mm 0.00 in0.0 mm
01:43 AM 56.8°F13.8°C 54.5°F12.5°C 92% Calm Calm 1.1 mph1.8 kmh 29.80 in1009.1 mb 0.00 in0.0 mm 0.00 in0.0 mm 0.00 in0.0 mm
01:48 AM 56.8°F13.8°C 54.5°F12.5°C 92% Calm Calm -- 29.80 in1009.1 mb 0.00 in0.0 mm 0.00 in0.0 mm 0.00 in0.0 mm
01:53 AM 56.8°F13.8°C 54.5°F12.5°C 92% Calm Calm 2.0 mph3.2 kmh 29.79 in1008.8 mb 0.00 in0.0 mm 0.00 in0.0 mm 0.00 in0.0 mm
01:58 AM 56.8°F13.8°C 54.5°F12.5°C 92% Calm Calm 2.0 mph3.2 kmh 29.79 in1008.8 mb 0.00 in0.0 mm 0.00 in0.0 mm 0.00 in0.0 mm
02:03 AM 56.8°F13.8°C 54.5°F12.5°C 92% 0.2 mph SW0.3 kmh SW 1.1 mph1.8 kmh 29.79 in1008.8 mb 0.00 in0.0 mm 0.00 in0.0 mm 0.00 in0.0 mm
02:08 AM 56.8°F13.8°C 54.5°F12.5°C 92% 0.7 mph SE1.1 kmh SE 2.0 mph3.2 kmh 29.79 in1008.8 mb 0.00 in0.0 mm 0.00 in0.0 mm 0.00 in0.0 mm
02:13 AM 57.0°F13.9°C 54.5°F12.5°C 91% 0.2 mph SSE0.3 kmh SSE 1.1 mph1.8 kmh 29.79 in1008.8 mb 0.00 in0.0 mm 0.00 in0.0 mm 0.00 in0.0 mm
02:18 AM 57.0°F13.9°C 54.5°F12.5°C 91% 0.2 mph SE0.3 kmh SE 2.0 mph3.2 kmh 29.79 in1008.8 mb 0.00 in0.0 mm 0.00 in0.0 mm 0.00 in0.0 mm
02:23 AM 57.0°F13.9°C 54.5°F12.5°C 91% Calm Calm -- 29.79 in1008.8 mb 0.00 in0.0 mm 0.00 in0.0 mm 0.00 in0.0 mm
02:28 AM 57.0°F13.9°C 54.5°F12.5°C 91% Calm Calm -- 29.79 in1008.8 mb 0.00 in0.0 mm 0.00 in0.0 mm 0.00 in0.0 mm
02:33 AM 57.0°F13.9°C 54.5°F12.5°C 91% 0.4 mph SSE0.6 kmh SSE 2.0 mph3.2 kmh 29.79 in1008.8 mb 0.00 in0.0 mm 0.00 in0.0 mm 0.00 in0.0 mm
02:38 AM 57.2°F14.0°C 54.7°F12.6°C 91% 0.4 mph SE0.6 kmh SE 2.0 mph3.2 kmh 29.79 in1008.8 mb 0.00 in0.0 mm 0.00 in0.0 mm 0.00 in0.0 mm
02:43 AM 57.2°F14.0°C 54.3°F12.4°C 90% 0.4 mph SSE0.6 kmh SSE 2.0 mph3.2 kmh 29.79 in1008.8 mb 0.00 in0.0 mm 0.00 in0.0 mm 0.00 in0.0 mm
02:48 AM 57.4°F14.1°C 54.5°F12.5°C 90% 1.1 mph SE1.8 kmh SE 3.1 mph5.0 kmh 29.78 in1008.5 mb 0.00 in0.0 mm 0.00 in0.0 mm 0.00 in0.0 mm
02:53 AM 57.4°F14.1°C 54.5°F12.5°C 90% Calm Calm 3.1 mph5.0 kmh 29.78 in1008.5 mb 0.00 in0.0 mm 0.00 in0.0 mm 0.00 in0.0 mm
02:58 AM 57.4°F14.1°C 54.5°F12.5°C 90% Calm Calm 1.1 mph1.8 kmh 29.78 in1008.5 mb 0.00 in0.0 mm 0.00 in0.0 mm 0.00 in0.0 mm
03:03 AM 57.4°F14.1°C 54.5°F12.5°C 90% 0.4 mph SE0.6 kmh SE 2.0 mph3.2 kmh 29.78 in1008.5 mb 0.00 in0.0 mm 0.00 in0.0 mm 0.00 in0.0 mm
03:08 AM 57.6°F14.2°C 54.3°F12.4°C 89% 0.2 mph SE0.3 kmh SE 2.0 mph3.2 kmh 29.78 in1008.5 mb 0.00 in0.0 mm 0.00 in0.0 mm 0.00 in0.0 mm
03:13 AM 57.6°F14.2°C 54.3°F12.4°C 89% 0.7 mph S1.1 kmh S 2.0 mph3.2 kmh 29.78 in1008.5 mb 0.00 in0.0 mm 0.00 in0.0 mm 0.00 in0.0 mm
03:18 AM 57.6°F14.2°C 54.3°F12.4°C 89% Calm Calm 2.0 mph3.2 kmh 29.78 in1008.5 mb 0.00 in0.0 mm 0.00 in0.0 mm 0.00 in0.0 mm
03:23 AM 57.6°F14.2°C 54.3°F12.4°C 89% 0.2 mph SSE0.3 kmh SSE 3.1 mph5.0 kmh 29.78 in1008.5 mb 0.00 in0.0 mm 0.00 in0.0 mm 0.00 in0.0 mm
03:28 AM 57.6°F14.2°C 54.3°F12.4°C 89% 1.1 mph SSW1.8 kmh SSW 2.0 mph3.2 kmh 29.78 in1008.5 mb 0.00 in0.0 mm 0.00 in0.0 mm 0.00 in0.0 mm
03:33 AM 57.7°F14.3°C 54.1°F12.3°C 88% 1.3 mph SSE2.1 kmh SSE 3.1 mph5.0 kmh 29.78 in1008.5 mb 0.00 in0.0 mm 0.00 in0.0 mm 0.00 in0.0 mm
03:38 AM 57.7°F14.3°C 54.1°F12.3°C 88% 0.9 mph ESE1.4 kmh ESE 4.3 mph6.9 kmh 29.78 in1008.5 mb 0.00 in0.0 mm 0.00 in0.0 mm 0.00 in0.0 mm
03:43 AM 57.7°F14.3°C 54.1°F12.3°C 88% 0.9 mph SE1.4 kmh SE 4.3 mph6.9 kmh 29.78 in1008.5 mb 0.00 in0.0 mm 0.00 in0.0 mm 0.00 in0.0 mm
03:48 AM 57.9°F14.4°C 54.3°F12.4°C 88% 0.7 mph SSW1.1 kmh SSW 3.1 mph5.0 kmh 29.77 in1008.1 mb 0.00 in0.0 mm 0.00 in0.0 mm 0.00 in0.0 mm
03:53 AM 57.9°F14.4°C 54.3°F12.4°C 88% Calm Calm -- 29.77 in1008.1 mb 0.00 in0.0 mm 0.00 in0.0 mm 0.00 in0.0 mm
03:58 AM 57.9°F14.4°C 54.1°F12.3°C 87% 0.9 mph SE1.4 kmh SE 4.3 mph6.9 kmh 29.77 in1008.1 mb 0.00 in0.0 mm 0.00 in0.0 mm 0.00 in0.0 mm
04:03 AM 57.9°F14.4°C 54.1°F12.3°C 87% 1.1 mph S1.8 kmh S 4.3 mph6.9 kmh 29.77 in1008.1 mb 0.00 in0.0 mm 0.00 in0.0 mm 0.00 in0.0 mm
04:08 AM 57.9°F14.4°C 54.1°F12.3°C 87% Calm Calm 4.3 mph6.9 kmh 29.77 in1008.1 mb 0.00 in0.0 mm 0.00 in0.0 mm 0.00 in0.0 mm
04:13 AM 57.9°F14.4°C 53.8°F12.1°C 86% 1.1 mph S1.8 kmh S 3.1 mph5.0 kmh 29.77 in1008.1 mb 0.00 in0.0 mm 0.00 in0.0 mm 0.00 in0.0 mm
04:18 AM 57.9°F14.4°C 53.8°F12.1°C 86% 3.1 mph SSE5.0 kmh SSE 6.3 mph10.1 kmh 29.77 in1008.1 mb 0.00 in0.0 mm 0.00 in0.0 mm 0.00 in0.0 mm
04:23 AM 57.9°F14.4°C 53.4°F11.9°C 85% 1.6 mph SSE2.6 kmh SSE 4.3 mph6.9 kmh 29.77 in1008.1 mb 0.00 in0.0 mm 0.00 in0.0 mm 0.00 in0.0 mm
04:28 AM 58.1°F14.5°C 53.6°F12.0°C 85% 1.8 mph SSE2.9 kmh SSE 4.3 mph6.9 kmh 29.77 in1008.1 mb 0.00 in0.0 mm 0.00 in0.0 mm 0.00 in0.0 mm
04:33 AM 58.1°F14.5°C 53.2°F11.8°C 84% 2.2 mph S3.5 kmh S 6.3 mph10.1 kmh 29.77 in1008.1 mb 0.00 in0.0 mm 0.00 in0.0 mm 0.00 in0.0 mm
04:38 AM 58.3°F14.6°C 53.4°F11.9°C 84% 4.0 mph S6.4 kmh S 6.3 mph10.1 kmh 29.77 in1008.1 mb 0.00 in0.0 mm 0.00 in0.0 mm 0.00 in0.0 mm
04:43 AM 58.3°F14.6°C 53.1°F11.7°C 83% 5.8 mph SSE9.3 kmh SSE 9.6 mph15.4 kmh 29.77 in1008.1 mb 0.00 in0.0 mm 0.00 in0.0 mm 0.00 in0.0 mm
04:48 AM 58.3°F14.6°C 53.1°F11.7°C 83% 5.6 mph SSW9.0 kmh SSW 9.6 mph15.4 kmh 29.77 in1008.1 mb 0.00 in0.0 mm 0.00 in0.0 mm 0.00 in0.0 mm
04:53 AM 58.3°F14.6°C 53.1°F11.7°C 83% 4.5 mph SSE7.2 kmh SSE 9.6 mph15.4 kmh 29.77 in1008.1 mb 0.00 in0.0 mm 0.00 in0.0 mm 0.00 in0.0 mm
04:58 AM 58.3°F14.6°C 53.1°F11.7°C 83% 4.5 mph SW7.2 kmh SW 9.6 mph15.4 kmh 29.77 in1008.1 mb 0.00 in0.0 mm 0.00 in0.0 mm 0.00 in0.0 mm
05:03 AM 58.3°F14.6°C 53.1°F11.7°C 83% 3.6 mph S5.8 kmh S 7.4 mph11.9 kmh 29.77 in1008.1 mb 0.00 in0.0 mm 0.00 in0.0 mm 0.00 in0.0 mm
05:08 AM 57.9°F14.4°C 52.7°F11.5°C 83% 2.5 mph SSW4.0 kmh SSW 8.5 mph13.7 kmh 29.77 in1008.1 mb 0.00 in0.0 mm 0.00 in0.0 mm 0.00 in0.0 mm
05:13 AM 57.9°F14.4°C 52.7°F11.5°C 83% 2.7 mph SW4.3 kmh SW 6.3 mph10.1 kmh 29.77 in1008.1 mb 0.00 in0.0 mm 0.00 in0.0 mm 0.00 in0.0 mm
05:18 AM 57.9°F14.4°C 53.1°F11.7°C 84% 2.7 mph SSW4.3 kmh SSW 7.4 mph11.9 kmh 29.78 in1008.5 mb 0.00 in0.0 mm 0.00 in0.0 mm 0.00 in0.0 mm
05:23 AM 57.7°F14.3°C 53.2°F11.8°C 85% 4.7 mph SW7.6 kmh SW 10.5 mph16.9 kmh 29.78 in1008.5 mb 0.00 in0.0 mm 0.00 in0.0 mm 0.00 in0.0 mm
05:28 AM 57.2°F14.0°C 53.4°F11.9°C 87% 5.1 mph E8.2 kmh E 11.6 mph18.7 kmh 29.78 in1008.5 mb 0.00 in0.0 mm 0.00 in0.0 mm 0.00 in0.0 mm
05:33 AM 56.8°F13.8°C 53.6°F12.0°C 89% 4.3 mph SE6.9 kmh SE 11.6 mph18.7 kmh 29.78 in1008.5 mb 0.01 in0.3 mm 0.12 in3.0 mm 0.01 in0.3 mm
05:38 AM 56.5°F13.6°C 53.6°F12.0°C 90% 4.3 mph SSE6.9 kmh SSE 9.6 mph15.4 kmh 29.78 in1008.5 mb 0.01 in0.3 mm 0.00 in0.0 mm 0.01 in0.3 mm
05:43 AM 56.5°F13.6°C 54.0°F12.2°C 91% 2.7 mph SW4.3 kmh SW 6.3 mph10.1 kmh 29.78 in1008.5 mb 0.01 in0.3 mm 0.00 in0.0 mm 0.01 in0.3 mm
05:48 AM 56.3°F13.5°C 53.8°F12.1°C 91% 2.9 mph SSE4.7 kmh SSE 6.3 mph10.1 kmh 29.78 in1008.5 mb 0.01 in0.3 mm 0.00 in0.0 mm 0.01 in0.3 mm
05:53 AM 56.3°F13.5°C 54.0°F12.2°C 92% 2.2 mph SE3.5 kmh SE 6.3 mph10.1 kmh 29.78 in1008.5 mb 0.01 in0.3 mm 0.00 in0.0 mm 0.01 in0.3 mm
05:58 AM 56.3°F13.5°C 54.0°F12.2°C 92% 2.0 mph SE3.2 kmh SE 6.3 mph10.1 kmh 29.78 in1008.5 mb 0.01 in0.3 mm 0.00 in0.0 mm 0.01 in0.3 mm
06:03 AM 56.3°F13.5°C 54.0°F12.2°C 92% 2.9 mph SSE4.7 kmh SSE 6.3 mph10.1 kmh 29.78 in1008.5 mb 0.01 in0.3 mm 0.00 in0.0 mm 0.01 in0.3 mm
06:08 AM 56.3°F13.5°C 54.0°F12.2°C 92% 2.2 mph SE3.5 kmh SE 6.3 mph10.1 kmh 29.78 in1008.5 mb 0.01 in0.3 mm 0.00 in0.0 mm 0.01 in0.3 mm
06:13 AM 56.3°F13.5°C 54.0°F12.2°C 92% 1.1 mph SSE1.8 kmh SSE 4.3 mph6.9 kmh 29.78 in1008.5 mb 0.01 in0.3 mm 0.00 in0.0 mm 0.01 in0.3 mm
06:18 AM 56.5°F13.6°C 54.1°F12.3°C 92% 0.7 mph SSE1.1 kmh SSE 5.4 mph8.7 kmh 29.78 in1008.5 mb 0.01 in0.3 mm 0.00 in0.0 mm 0.01 in0.3 mm
06:23 AM 56.7°F13.7°C 54.3°F12.4°C 92% 0.4 mph SE0.6 kmh SE 2.0 mph3.2 kmh 29.78 in1008.5 mb 0.01 in0.3 mm 0.00 in0.0 mm 0.01 in0.3 mm
06:28 AM 56.8°F13.8°C 54.5°F12.5°C 92% 1.3 mph SW2.1 kmh SW 3.1 mph5.0 kmh 29.78 in1008.5 mb 0.01 in0.3 mm 0.00 in0.0 mm 0.01 in0.3 mm
06:33 AM 57.0°F13.9°C 54.7°F12.6°C 92% 0.4 mph S0.6 kmh S 3.1 mph5.0 kmh 29.78 in1008.5 mb 0.00 in0.0 mm 0.00 in0.0 mm 0.01 in0.3 mm
06:38 AM 57.2°F14.0°C 54.9°F12.7°C 92% 0.7 mph S1.1 kmh S 3.1 mph5.0 kmh 29.79 in1008.8 mb 0.00 in0.0 mm 0.00 in0.0 mm 0.01 in0.3 mm
06:43 AM 57.4°F14.1°C 55.0°F12.8°C 92% 0.7 mph SE1.1 kmh SE 2.0 mph3.2 kmh 29.79 in1008.8 mb 0.00 in0.0 mm 0.00 in0.0 mm 0.01 in0.3 mm
06:48 AM 57.4°F14.1°C 55.0°F12.8°C 92% 0.2 mph SSW0.3 kmh SSW 2.0 mph3.2 kmh 29.79 in1008.8 mb 0.00 in0.0 mm 0.00 in0.0 mm 0.01 in0.3 mm
06:53 AM 57.7°F14.3°C 55.4°F13.0°C 92% 0.2 mph SSW0.3 kmh SSW 1.1 mph1.8 kmh 29.79 in1008.8 mb 0.00 in0.0 mm 0.00 in0.0 mm 0.01 in0.3 mm
06:58 AM 57.9°F14.4°C 55.6°F13.1°C 92% Calm Calm -- 29.79 in1008.8 mb 0.00 in0.0 mm 0.00 in0.0 mm 0.01 in0.3 mm
07:03 AM 57.9°F14.4°C 55.2°F12.9°C 91% 0.9 mph SW1.4 kmh SW 3.1 mph5.0 kmh 29.79 in1008.8 mb 0.00 in0.0 mm 0.00 in0.0 mm 0.01 in0.3 mm
07:08 AM 57.9°F14.4°C 55.2°F12.9°C 91% 0.7 mph SE1.1 kmh SE 2.0 mph3.2 kmh 29.79 in1008.8 mb 0.00 in0.0 mm 0.00 in0.0 mm 0.01 in0.3 mm
07:13 AM 57.9°F14.4°C 55.2°F12.9°C 91% 0.7 mph SE1.1 kmh SE 2.0 mph3.2 kmh 29.79 in1008.8 mb 0.00 in0.0 mm 0.00 in0.0 mm 0.01 in0.3 mm
07:18 AM 57.9°F14.4°C 55.0°F12.8°C 90% 1.1 mph SSE1.8 kmh SSE 4.3 mph6.9 kmh 29.79 in1008.8 mb 0.00 in0.0 mm 0.00 in0.0 mm 0.01 in0.3 mm
07:23 AM 57.9°F14.4°C 55.0°F12.8°C 90% Calm Calm 2.0 mph3.2 kmh 29.79 in1008.8 mb 0.00 in0.0 mm 0.00 in0.0 mm 0.01 in0.3 mm
07:28 AM 57.9°F14.4°C 55.0°F12.8°C 90% 1.6 mph SSE2.6 kmh SSE 4.3 mph6.9 kmh 29.79 in1008.8 mb 0.00 in0.0 mm 0.00 in0.0 mm 0.01 in0.3 mm
07:33 AM 58.3°F14.6°C 55.4°F13.0°C 90% 0.2 mph S0.3 kmh S 3.1 mph5.0 kmh 29.79 in1008.8 mb 0.00 in0.0 mm 0.00 in0.0 mm 0.01 in0.3 mm
07:38 AM 58.3°F14.6°C 55.4°F13.0°C 90% 2.0 mph S3.2 kmh S 4.3 mph6.9 kmh 29.79 in1008.8 mb 0.00 in0.0 mm 0.00 in0.0 mm 0.01 in0.3 mm
07:43 AM 58.5°F14.7°C 55.2°F12.9°C 89% 3.8 mph SE6.1 kmh SE 7.4 mph11.9 kmh 29.79 in1008.8 mb 0.00 in0.0 mm 0.00 in0.0 mm 0.01 in0.3 mm
07:48 AM 58.6°F14.8°C 55.4°F13.0°C 89% 2.9 mph ESE4.7 kmh ESE 5.4 mph8.7 kmh 29.79 in1008.8 mb 0.00 in0.0 mm 0.00 in0.0 mm 0.01 in0.3 mm
07:53 AM 58.8°F14.9°C 55.0°F12.8°C 87% 4.3 mph S6.9 kmh S 7.4 mph11.9 kmh 29.80 in1009.1 mb 0.00 in0.0 mm 0.00 in0.0 mm 0.01 in0.3 mm
07:58 AM 59.0°F15.0°C 54.9°F12.7°C 86% 4.0 mph S6.4 kmh S 10.5 mph16.9 kmh 29.79 in1008.8 mb 0.00 in0.0 mm 0.00 in0.0 mm 0.01 in0.3 mm
08:03 AM 59.2°F15.1°C 54.3°F12.4°C 84% 4.9 mph SE7.9 kmh SE 9.6 mph15.4 kmh 29.79 in1008.8 mb 0.00 in0.0 mm 0.00 in0.0 mm 0.01 in0.3 mm
08:08 AM 59.4°F15.2°C 54.1°F12.3°C 83% 5.1 mph SW8.2 kmh SW 8.5 mph13.7 kmh 29.80 in1009.1 mb 0.00 in0.0 mm 0.00 in0.0 mm 0.01 in0.3 mm
08:13 AM 59.4°F15.2°C 53.8°F12.1°C 82% 4.7 mph SE7.6 kmh SE 9.6 mph15.4 kmh 29.80 in1009.1 mb 0.00 in0.0 mm 0.00 in0.0 mm 0.01 in0.3 mm
08:18 AM 59.7°F15.4°C 54.1°F12.3°C 82% 3.1 mph SSE5.0 kmh SSE 8.5 mph13.7 kmh 29.80 in1009.1 mb 0.00 in0.0 mm 0.00 in0.0 mm 0.01 in0.3 mm
08:23 AM 59.9°F15.5°C 54.3°F12.4°C 82% 2.5 mph SSW4.0 kmh SSW 6.3 mph10.1 kmh 29.80 in1009.1 mb 0.00 in0.0 mm 0.00 in0.0 mm 0.01 in0.3 mm
08:28 AM 60.1°F15.6°C 54.3°F12.4°C 81% 3.8 mph SSW6.1 kmh SSW 6.3 mph10.1 kmh 29.80 in1009.1 mb 0.00 in0.0 mm 0.00 in0.0 mm 0.01 in0.3 mm
08:33 AM 60.1°F15.6°C 54.0°F12.2°C 80% 4.0 mph SE6.4 kmh SE 9.6 mph15.4 kmh 29.80 in1009.1 mb 0.00 in0.0 mm 0.00 in0.0 mm 0.01 in0.3 mm
08:38 AM 60.4°F15.8°C 54.3°F12.4°C 80% 1.8 mph SE2.9 kmh SE 7.4 mph11.9 kmh 29.80 in1009.1 mb 0.00 in0.0 mm 0.00 in0.0 mm 0.01 in0.3 mm
08:43 AM 60.6°F15.9°C 54.1°F12.3°C 79% 2.7 mph SSW4.3 kmh SSW 7.4 mph11.9 kmh 29.80 in1009.1 mb 0.00 in0.0 mm 0.00 in0.0 mm 0.01 in0.3 mm
08:48 AM 60.6°F15.9°C 53.8°F12.1°C 78% 4.5 mph SE7.2 kmh SE 7.4 mph11.9 kmh 29.80 in1009.1 mb 0.00 in0.0 mm 0.00 in0.0 mm 0.01 in0.3 mm
08:53 AM 60.8°F16.0°C 54.0°F12.2°C 78% 8.1 mph WSW13.0 kmh WSW 12.8 mph20.6 kmh 29.80 in1009.1 mb 0.00 in0.0 mm 0.00 in0.0 mm 0.01 in0.3 mm
08:58 AM 61.0°F16.1°C 53.8°F12.1°C 77% 6.7 mph WSW10.8 kmh WSW 12.8 mph20.6 kmh 29.80 in1009.1 mb 0.00 in0.0 mm 0.00 in0.0 mm 0.01 in0.3 mm
09:03 AM 61.2°F16.2°C 53.6°F12.0°C 76% 7.8 mph SW12.6 kmh SW 12.8 mph20.6 kmh 29.81 in1009.5 mb 0.00 in0.0 mm 0.00 in0.0 mm 0.01 in0.3 mm
09:08 AM 61.5°F16.4°C 54.0°F12.2°C 76% 8.5 mph SW13.7 kmh SW 11.6 mph18.7 kmh 29.80 in1009.1 mb 0.00 in0.0 mm 0.00 in0.0 mm 0.01 in0.3 mm
09:13 AM 62.1°F16.7°C 54.0°F12.2°C 75% 8.5 mph SW13.7 kmh SW 14.8 mph23.8 kmh 29.80 in1009.1 mb 0.00 in0.0 mm 0.00 in0.0 mm 0.01 in0.3 mm
09:18 AM 62.1°F16.7°C 53.2°F11.8°C 73% 11.0 mph WSW17.7 kmh WSW 14.8 mph23.8 kmh 29.80 in1009.1 mb 0.00 in0.0 mm 0.00 in0.0 mm 0.01 in0.3 mm
09:23 AM 62.2°F16.8°C 53.4°F11.9°C 73% 7.6 mph SW12.2 kmh SW 12.8 mph20.6 kmh 29.81 in1009.5 mb 0.00 in0.0 mm 0.00 in0.0 mm 0.01 in0.3 mm
09:28 AM 62.2°F16.8°C 53.4°F11.9°C 73% 9.8 mph SW15.8 kmh SW 15.9 mph25.6 kmh 29.80 in1009.1 mb 0.00 in0.0 mm 0.00 in0.0 mm 0.01 in0.3 mm
09:33 AM 62.2°F16.8°C 53.4°F11.9°C 73% 7.6 mph SW12.2 kmh SW 15.9 mph25.6 kmh 29.80 in1009.1 mb 0.00 in0.0 mm 0.00 in0.0 mm 0.01 in0.3 mm
09:38 AM 62.6°F17.0°C 53.8°F12.1°C 73% 6.5 mph SSW10.5 kmh SSW 10.5 mph16.9 kmh 29.80 in1009.1 mb 0.00 in0.0 mm 0.00 in0.0 mm 0.01 in0.3 mm
09:43 AM 62.6°F17.0°C 53.4°F11.9°C 72% 8.1 mph SSW13.0 kmh SSW 14.8 mph23.8 kmh 29.80 in1009.1 mb 0.00 in0.0 mm 0.00 in0.0 mm 0.01 in0.3 mm
09:48 AM 62.6°F17.0°C 53.8°F12.1°C 73% 8.1 mph SW13.0 kmh SW 13.9 mph22.4 kmh 29.80 in1009.1 mb 0.00 in0.0 mm 0.00 in0.0 mm 0.01 in0.3 mm
09:53 AM 62.6°F17.0°C 53.8°F12.1°C 73% 7.2 mph SW11.6 kmh SW 12.8 mph20.6 kmh 29.81 in1009.5 mb 0.00 in0.0 mm 0.00 in0.0 mm 0.01 in0.3 mm
09:58 AM 62.8°F17.1°C 53.6°F12.0°C 72% 5.8 mph SSW9.3 kmh SSW 11.6 mph18.7 kmh 29.80 in1009.1 mb 0.00 in0.0 mm 0.00 in0.0 mm 0.01 in0.3 mm
10:03 AM 62.8°F17.1°C 53.2°F11.8°C 71% 8.3 mph SW13.4 kmh SW 11.6 mph18.7 kmh 29.80 in1009.1 mb 0.00 in0.0 mm 0.00 in0.0 mm 0.01 in0.3 mm
10:08 AM 62.8°F17.1°C 53.6°F12.0°C 72% 6.5 mph SSW10.5 kmh SSW 11.6 mph18.7 kmh 29.80 in1009.1 mb 0.00 in0.0 mm 0.00 in0.0 mm 0.01 in0.3 mm
10:13 AM 62.8°F17.1°C 53.2°F11.8°C 71% 5.6 mph SW9.0 kmh SW 9.6 mph15.4 kmh 29.80 in1009.1 mb 0.00 in0.0 mm 0.00 in0.0 mm 0.01 in0.3 mm
10:18 AM 62.8°F17.1°C 53.2°F11.8°C 71% 4.5 mph SW7.2 kmh SW 10.5 mph16.9 kmh 29.81 in1009.5 mb 0.00 in0.0 mm 0.00 in0.0 mm 0.01 in0.3 mm
10:23 AM 62.2°F16.8°C 53.4°F11.9°C 73% 5.8 mph SSW9.3 kmh SSW 9.6 mph15.4 kmh 29.81 in1009.5 mb 0.00 in0.0 mm 0.00 in0.0 mm 0.01 in0.3 mm
10:28 AM 61.7°F16.5°C 53.2°F11.8°C 74% 3.4 mph S5.5 kmh S 8.5 mph13.7 kmh 29.81 in1009.5 mb 0.00 in0.0 mm 0.00 in0.0 mm 0.01 in0.3 mm
10:33 AM 61.7°F16.5°C 54.1°F12.3°C 76% 3.8 mph NW6.1 kmh NW 9.6 mph15.4 kmh 29.81 in1009.5 mb 0.00 in0.0 mm 0.00 in0.0 mm 0.01 in0.3 mm
10:38 AM 61.7°F16.5°C 54.1°F12.3°C 76% 6.0 mph SW9.7 kmh SW 11.6 mph18.7 kmh 29.81 in1009.5 mb 0.00 in0.0 mm 0.00 in0.0 mm 0.01 in0.3 mm
10:43 AM 61.9°F16.6°C 53.4°F11.9°C 74% 5.8 mph WSW9.3 kmh WSW 10.5 mph16.9 kmh 29.81 in1009.5 mb 0.00 in0.0 mm 0.00 in0.0 mm 0.01 in0.3 mm
10:48 AM 62.1°F16.7°C 53.6°F12.0°C 74% 6.3 mph S10.1 kmh S 9.6 mph15.4 kmh 29.80 in1009.1 mb 0.00 in0.0 mm 0.00 in0.0 mm 0.01 in0.3 mm
10:53 AM 61.9°F16.6°C 53.4°F11.9°C 74% 8.1 mph SW13.0 kmh SW 14.8 mph23.8 kmh 29.81 in1009.5 mb 0.00 in0.0 mm 0.00 in0.0 mm 0.01 in0.3 mm
10:58 AM 61.5°F16.4°C 54.3°F12.4°C 77% 3.4 mph SSE5.5 kmh SSE 8.5 mph13.7 kmh 29.81 in1009.5 mb 0.00 in0.0 mm 0.00 in0.0 mm 0.01 in0.3 mm
11:03 AM 61.5°F16.4°C 54.3°F12.4°C 77% 6.7 mph SW10.8 kmh SW 12.8 mph20.6 kmh 29.81 in1009.5 mb 0.00 in0.0 mm 0.00 in0.0 mm 0.01 in0.3 mm
11:08 AM 60.8°F16.0°C 54.7°F12.6°C 80% 10.1 mph SW16.3 kmh SW 18.1 mph29.1 kmh 29.81 in1009.5 mb 0.01 in0.3 mm 0.12 in3.0 mm 0.02 in0.5 mm
11:13 AM 59.4°F15.2°C 54.5°F12.5°C 84% 8.7 mph SW14.0 kmh SW 14.8 mph23.8 kmh 29.81 in1009.5 mb 0.02 in0.5 mm 0.12 in3.0 mm 0.03 in0.8 mm
11:18 AM 58.6°F14.8°C 54.5°F12.5°C 86% 7.6 mph SSW12.2 kmh SSW 13.9 mph22.4 kmh 29.81 in1009.5 mb 0.03 in0.8 mm 0.12 in3.0 mm 0.04 in1.0 mm
11:23 AM 58.3°F14.6°C 54.7°F12.6°C 88% 9.4 mph WSW15.1 kmh WSW 17.0 mph27.4 kmh 29.81 in1009.5 mb 0.03 in0.8 mm 0.00 in0.0 mm 0.04 in1.0 mm
11:28 AM 58.3°F14.6°C 55.0°F12.8°C 89% 8.7 mph S14.0 kmh S 14.8 mph23.8 kmh 29.81 in1009.5 mb 0.03 in0.8 mm 0.00 in0.0 mm 0.04 in1.0 mm
11:33 AM 58.3°F14.6°C 55.4°F13.0°C 90% 9.6 mph SW15.4 kmh SW 17.0 mph27.4 kmh 29.81 in1009.5 mb 0.03 in0.8 mm 0.00 in0.0 mm 0.04 in1.0 mm
11:38 AM 58.3°F14.6°C 55.4°F13.0°C 90% 10.1 mph SW16.3 kmh SW 17.0 mph27.4 kmh 29.81 in1009.5 mb 0.03 in0.8 mm 0.00 in0.0 mm 0.04 in1.0 mm
11:43 AM 58.3°F14.6°C 55.6°F13.1°C 91% 8.9 mph SSW14.3 kmh SSW 13.9 mph22.4 kmh 29.81 in1009.5 mb 0.03 in0.8 mm 0.00 in0.0 mm 0.04 in1.0 mm
11:48 AM 58.3°F14.6°C 55.4°F13.0°C 90% 8.3 mph SW13.4 kmh SW 15.9 mph25.6 kmh 29.81 in1009.5 mb 0.03 in0.8 mm 0.00 in0.0 mm 0.04 in1.0 mm
11:53 AM 57.9°F14.4°C 55.2°F12.9°C 91% 7.2 mph WSW11.6 kmh WSW 12.8 mph20.6 kmh 29.81 in1009.5 mb 0.03 in0.8 mm 0.00 in0.0 mm 0.04 in1.0 mm
11:58 AM 57.9°F14.4°C 55.6°F13.1°C 92% 5.1 mph SW8.2 kmh SW 12.8 mph20.6 kmh 29.81 in1009.5 mb 0.03 in0.8 mm 0.00 in0.0 mm 0.04 in1.0 mm
12:03 PM 57.9°F14.4°C 55.2°F12.9°C 91% 7.4 mph SSW11.9 kmh SSW 11.6 mph18.7 kmh 29.81 in1009.5 mb 0.03 in0.8 mm 0.00 in0.0 mm 0.04 in1.0 mm
12:08 PM 58.5°F14.7°C 56.1°F13.4°C 92% 4.7 mph SSW7.6 kmh SSW 9.6 mph15.4 kmh 29.81 in1009.5 mb 0.02 in0.5 mm 0.00 in0.0 mm 0.04 in1.0 mm
12:13 PM 58.3°F14.6°C 55.6°F13.1°C 91% 4.7 mph SW7.6 kmh SW 11.6 mph18.7 kmh 29.81 in1009.5 mb 0.01 in0.3 mm 0.00 in0.0 mm 0.04 in1.0 mm
12:18 PM 58.3°F14.6°C 54.7°F12.6°C 88% 3.4 mph WSW5.5 kmh WSW 7.4 mph11.9 kmh 29.81 in1009.5 mb 0.00 in0.0 mm 0.00 in0.0 mm 0.04 in1.0 mm
12:23 PM 58.8°F14.9°C 55.2°F12.9°C 88% 5.8 mph SSW9.3 kmh SSW 9.6 mph15.4 kmh 29.81 in1009.5 mb 0.00 in0.0 mm 0.00 in0.0 mm 0.04 in1.0 mm
12:28 PM 59.0°F15.0°C 54.9°F12.7°C 86% 6.5 mph SW10.5 kmh SW 9.6 mph15.4 kmh 29.81 in1009.5 mb 0.00 in0.0 mm 0.00 in0.0 mm 0.04 in1.0 mm
12:33 PM 58.8°F14.9°C 54.7°F12.6°C 86% 6.3 mph WSW10.1 kmh WSW 10.5 mph16.9 kmh 29.80 in1009.1 mb 0.00 in0.0 mm 0.00 in0.0 mm 0.04 in1.0 mm
12:38 PM 59.2°F15.1°C 55.6°F13.1°C 88% 3.4 mph SW5.5 kmh SW 9.6 mph15.4 kmh 29.80 in1009.1 mb 0.00 in0.0 mm 0.00 in0.0 mm 0.04 in1.0 mm
12:43 PM 58.8°F14.9°C 55.0°F12.8°C 87% 2.7 mph WSW4.3 kmh WSW 5.4 mph8.7 kmh 29.80 in1009.1 mb 0.00 in0.0 mm 0.00 in0.0 mm 0.04 in1.0 mm
12:48 PM 59.0°F15.0°C 55.2°F12.9°C 87% 4.9 mph WSW7.9 kmh WSW 7.4 mph11.9 kmh 29.80 in1009.1 mb 0.00 in0.0 mm 0.00 in0.0 mm 0.04 in1.0 mm
12:53 PM 59.4°F15.2°C 55.2°F12.9°C 86% 6.3 mph SW10.1 kmh SW 11.6 mph18.7 kmh 29.80 in1009.1 mb 0.00 in0.0 mm 0.00 in0.0 mm 0.04 in1.0 mm
12:58 PM 59.7°F15.4°C 55.2°F12.9°C 85% 6.3 mph SSW10.1 kmh SSW 9.6 mph15.4 kmh 29.80 in1009.1 mb 0.00 in0.0 mm 0.00 in0.0 mm 0.04 in1.0 mm
01:03 PM 60.4°F15.8°C 56.3°F13.5°C 86% 3.4 mph SW5.5 kmh SW 12.8 mph20.6 kmh 29.80 in1009.1 mb 0.00 in0.0 mm 0.00 in0.0 mm 0.04 in1.0 mm
01:08 PM 61.3°F16.3°C 57.4°F14.1°C 87% 5.4 mph SW8.7 kmh SW 8.5 mph13.7 kmh 29.80 in1009.1 mb 0.00 in0.0 mm 0.00 in0.0 mm 0.04 in1.0 mm
01:13 PM 61.2°F16.2°C 56.7°F13.7°C 85% 3.8 mph S6.1 kmh S 11.6 mph18.7 kmh 29.80 in1009.1 mb 0.00 in0.0 mm 0.00 in0.0 mm 0.04 in1.0 mm
01:18 PM 61.5°F16.4°C 56.7°F13.7°C 84% 4.0 mph SE6.4 kmh SE 7.4 mph11.9 kmh 29.80 in1009.1 mb 0.00 in0.0 mm 0.00 in0.0 mm 0.04 in1.0 mm
01:23 PM 61.7°F16.5°C 56.5°F13.6°C 83% 4.5 mph WSW7.2 kmh WSW 9.6 mph15.4 kmh 29.80 in1009.1 mb 0.00 in0.0 mm 0.00 in0.0 mm 0.04 in1.0 mm
01:28 PM 61.9°F16.6°C 56.3°F13.5°C 82% 5.4 mph SW8.7 kmh SW 10.5 mph16.9 kmh 29.79 in1008.8 mb 0.00 in0.0 mm 0.00 in0.0 mm 0.04 in1.0 mm
01:33 PM 61.9°F16.6°C 55.6°F13.1°C 80% 6.7 mph SW10.8 kmh SW 11.6 mph18.7 kmh 29.79 in1008.8 mb 0.00 in0.0 mm 0.00 in0.0 mm 0.04 in1.0 mm
01:38 PM 62.2°F16.8°C 55.6°F13.1°C 79% 5.6 mph SW9.0 kmh SW 12.8 mph20.6 kmh 29.79 in1008.8 mb 0.00 in0.0 mm 0.00 in0.0 mm 0.04 in1.0 mm
01:43 PM 62.2°F16.8°C 55.2°F12.9°C 78% 6.9 mph S11.1 kmh S 12.8 mph20.6 kmh 29.80 in1009.1 mb 0.00 in0.0 mm 0.00 in0.0 mm 0.04 in1.0 mm
01:48 PM 62.2°F16.8°C 54.9°F12.7°C 77% 5.6 mph SW9.0 kmh SW 11.6 mph18.7 kmh 29.80 in1009.1 mb 0.00 in0.0 mm 0.00 in0.0 mm 0.04 in1.0 mm
01:53 PM 62.2°F16.8°C 54.5°F12.5°C 76% 5.6 mph SW9.0 kmh SW 10.5 mph16.9 kmh 29.79 in1008.8 mb 0.00 in0.0 mm 0.00 in0.0 mm 0.04 in1.0 mm
01:58 PM 62.4°F16.9°C 55.4°F13.0°C 78% 4.0 mph WSW6.4 kmh WSW 10.5 mph16.9 kmh 29.79 in1008.8 mb 0.00 in0.0 mm 0.00 in0.0 mm 0.04 in1.0 mm
02:03 PM 62.6°F17.0°C 55.6°F13.1°C 78% 6.9 mph SW11.1 kmh SW 11.6 mph18.7 kmh 29.79 in1008.8 mb 0.00 in0.0 mm 0.00 in0.0 mm 0.04 in1.0 mm
02:08 PM 62.2°F16.8°C 54.9°F12.7°C 77% 7.6 mph SW12.2 kmh SW 11.6 mph18.7 kmh 29.79 in1008.8 mb 0.00 in0.0 mm 0.00 in0.0 mm 0.04 in1.0 mm
02:13 PM 61.9°F16.6°C 55.2°F12.9°C 79% 8.9 mph SW14.3 kmh SW 12.8 mph20.6 kmh 29.79 in1008.8 mb 0.00 in0.0 mm 0.00 in0.0 mm 0.04 in1.0 mm
02:18 PM 61.9°F16.6°C 55.6°F13.1°C 80% 6.5 mph S10.5 kmh S 11.6 mph18.7 kmh 29.79 in1008.8 mb 0.00 in0.0 mm 0.00 in0.0 mm 0.04 in1.0 mm
02:23 PM 61.9°F16.6°C 54.9°F12.7°C 78% 6.5 mph SW10.5 kmh SW 11.6 mph18.7 kmh 29.79 in1008.8 mb 0.00 in0.0 mm 0.00 in0.0 mm 0.04 in1.0 mm
02:28 PM 61.9°F16.6°C 54.3°F12.4°C 76% 6.7 mph SSW10.8 kmh SSW 11.6 mph18.7 kmh 29.79 in1008.8 mb 0.00 in0.0 mm 0.00 in0.0 mm 0.04 in1.0 mm
02:33 PM 62.2°F16.8°C 54.5°F12.5°C 76% 5.8 mph SSW9.3 kmh SSW 13.9 mph22.4 kmh 29.79 in1008.8 mb 0.00 in0.0 mm 0.00 in0.0 mm 0.04 in1.0 mm
02:38 PM 62.6°F17.0°C 54.1°F12.3°C 74% 10.3 mph SW16.6 kmh SW 13.9 mph22.4 kmh 29.79 in1008.8 mb 0.00 in0.0 mm 0.00 in0.0 mm 0.04 in1.0 mm
02:43 PM 63.0°F17.2°C 54.1°F12.3°C 73% 8.9 mph SW14.3 kmh SW 11.6 mph18.7 kmh 29.79 in1008.8 mb 0.00 in0.0 mm 0.00 in0.0 mm 0.04 in1.0 mm
02:48 PM 62.8°F17.1°C 54.3°F12.4°C 74% 8.3 mph SW13.4 kmh SW 11.6 mph18.7 kmh 29.79 in1008.8 mb 0.00 in0.0 mm 0.00 in0.0 mm 0.04 in1.0 mm
02:53 PM 62.1°F16.7°C 54.0°F12.2°C 75% 7.4 mph SW11.9 kmh SW 13.9 mph22.4 kmh 29.79 in1008.8 mb 0.00 in0.0 mm 0.00 in0.0 mm 0.04 in1.0 mm
02:58 PM 61.7°F16.5°C 54.1°F12.3°C 76% 7.2 mph SSW11.6 kmh SSW 13.9 mph22.4 kmh 29.80 in1009.1 mb 0.00 in0.0 mm 0.00 in0.0 mm 0.04 in1.0 mm
03:03 PM 61.5°F16.4°C 54.3°F12.4°C 77% 7.4 mph SW11.9 kmh SW 12.8 mph20.6 kmh 29.79 in1008.8 mb 0.00 in0.0 mm 0.00 in0.0 mm 0.04 in1.0 mm
03:08 PM 61.3°F16.3°C 54.5°F12.5°C 78% 7.2 mph SW11.6 kmh SW 12.8 mph20.6 kmh 29.79 in1008.8 mb 0.00 in0.0 mm 0.00 in0.0 mm 0.04 in1.0 mm
03:13 PM 61.2°F16.2°C 54.3°F12.4°C 78% 5.8 mph SW9.3 kmh SW 10.5 mph16.9 kmh 29.80 in1009.1 mb 0.00 in0.0 mm 0.00 in0.0 mm 0.04 in1.0 mm
03:18 PM 61.2°F16.2°C 54.7°F12.6°C 79% 5.6 mph SW9.0 kmh SW 11.6 mph18.7 kmh 29.80 in1009.1 mb 0.00 in0.0 mm 0.00 in0.0 mm 0.04 in1.0 mm
03:23 PM 61.2°F16.2°C 54.3°F12.4°C 78% 5.4 mph S8.7 kmh S 11.6 mph18.7 kmh 29.80 in1009.1 mb 0.00 in0.0 mm 0.00 in0.0 mm 0.04 in1.0 mm
03:28 PM 61.2°F16.2°C 54.3°F12.4°C 78% 7.6 mph SSW12.2 kmh SSW 11.6 mph18.7 kmh 29.80 in1009.1 mb 0.00 in0.0 mm 0.00 in0.0 mm 0.04 in1.0 mm
03:33 PM 61.3°F16.3°C 54.1°F12.3°C 77% 8.5 mph SW13.7 kmh SW 13.9 mph22.4 kmh 29.80 in1009.1 mb 0.00 in0.0 mm 0.00 in0.0 mm 0.04 in1.0 mm
03:38 PM 61.3°F16.3°C 54.9°F12.7°C 79% 3.8 mph SSW6.1 kmh SSW 10.5 mph16.9 kmh 29.80 in1009.1 mb 0.00 in0.0 mm 0.00 in0.0 mm 0.04 in1.0 mm
03:43 PM 61.3°F16.3°C 55.0°F12.8°C 80% 6.9 mph SW11.1 kmh SW 13.9 mph22.4 kmh 29.80 in1009.1 mb 0.00 in0.0 mm 0.00 in0.0 mm 0.04 in1.0 mm
03:48 PM 61.3°F16.3°C 54.9°F12.7°C 79% 4.5 mph NW7.2 kmh NW 9.6 mph15.4 kmh 29.80 in1009.1 mb 0.00 in0.0 mm 0.00 in0.0 mm 0.04 in1.0 mm
03:53 PM 61.2°F16.2°C 54.7°F12.6°C 79% 4.0 mph SW6.4 kmh SW 10.5 mph16.9 kmh 29.80 in1009.1 mb 0.00 in0.0 mm 0.00 in0.0 mm 0.04 in1.0 mm
03:58 PM 61.2°F16.2°C 54.7°F12.6°C 79% 5.1 mph SSW8.2 kmh SSW 9.6 mph15.4 kmh 29.80 in1009.1 mb 0.00 in0.0 mm 0.00 in0.0 mm 0.04 in1.0 mm
04:03 PM 61.0°F16.1°C 54.1°F12.3°C 78% 6.0 mph SW9.7 kmh SW 9.6 mph15.4 kmh 29.80 in1009.1 mb 0.00 in0.0 mm 0.00 in0.0 mm 0.04 in1.0 mm
04:08 PM 61.2°F16.2°C 54.3°F12.4°C 78% 2.0 mph W3.2 kmh W 6.3 mph10.1 kmh 29.81 in1009.5 mb 0.00 in0.0 mm 0.00 in0.0 mm 0.04 in1.0 mm
04:13 PM 61.3°F16.3°C 54.1°F12.3°C 77% 4.9 mph SSW7.9 kmh SSW 6.3 mph10.1 kmh 29.80 in1009.1 mb 0.00 in0.0 mm 0.00 in0.0 mm 0.04 in1.0 mm
04:18 PM 61.0°F16.1°C 54.5°F12.5°C 79% 5.1 mph SSW8.2 kmh SSW 8.5 mph13.7 kmh 29.80 in1009.1 mb 0.00 in0.0 mm 0.00 in0.0 mm 0.04 in1.0 mm
04:23 PM 60.3°F15.7°C 53.8°F12.1°C 79% 3.8 mph WSW6.1 kmh WSW 8.5 mph13.7 kmh 29.80 in1009.1 mb 0.00 in0.0 mm 0.00 in0.0 mm 0.04 in1.0 mm
04:28 PM 60.1°F15.6°C 54.0°F12.2°C 80% 2.2 mph SW3.5 kmh SW 5.4 mph8.7 kmh 29.80 in1009.1 mb 0.00 in0.0 mm 0.00 in0.0 mm 0.04 in1.0 mm
04:33 PM 60.3°F15.7°C 54.3°F12.4°C 81% 3.4 mph SW5.5 kmh SW 7.4 mph11.9 kmh 29.81 in1009.5 mb 0.00 in0.0 mm 0.00 in0.0 mm 0.04 in1.0 mm
04:38 PM 60.3°F15.7°C 54.7°F12.6°C 82% 2.7 mph SW4.3 kmh SW 8.5 mph13.7 kmh 29.81 in1009.5 mb 0.00 in0.0 mm 0.00 in0.0 mm 0.04 in1.0 mm
04:43 PM 60.1°F15.6°C 54.9°F12.7°C 83% 0.2 mph WSW0.3 kmh WSW 8.5 mph13.7 kmh 29.80 in1009.1 mb 0.00 in0.0 mm 0.00 in0.0 mm 0.04 in1.0 mm
04:48 PM 59.9°F15.5°C 55.0°F12.8°C 84% 2.0 mph SW3.2 kmh SW 4.3 mph6.9 kmh 29.81 in1009.5 mb 0.00 in0.0 mm 0.00 in0.0 mm 0.04 in1.0 mm
04:53 PM 60.1°F15.6°C 55.2°F12.9°C 84% 2.2 mph SW3.5 kmh SW 6.3 mph10.1 kmh 29.80 in1009.1 mb 0.00 in0.0 mm 0.00 in0.0 mm 0.04 in1.0 mm
04:58 PM 60.1°F15.6°C 54.9°F12.7°C 83% 4.9 mph S7.9 kmh S 8.5 mph13.7 kmh 29.80 in1009.1 mb 0.00 in0.0 mm 0.00 in0.0 mm 0.04 in1.0 mm
05:03 PM 60.1°F15.6°C 54.9°F12.7°C 83% 4.7 mph WSW7.6 kmh WSW 8.5 mph13.7 kmh 29.80 in1009.1 mb 0.00 in0.0 mm 0.00 in0.0 mm 0.04 in1.0 mm
05:08 PM 59.7°F15.4°C 54.9°F12.7°C 84% 5.8 mph SW9.3 kmh SW 9.6 mph15.4 kmh 29.80 in1009.1 mb 0.00 in0.0 mm 0.00 in0.0 mm 0.04 in1.0 mm
05:13 PM 59.7°F15.4°C 54.9°F12.7°C 84% 4.3 mph SW6.9 kmh SW 9.6 mph15.4 kmh 29.80 in1009.1 mb 0.00 in0.0 mm 0.00 in0.0 mm 0.04 in1.0 mm
05:18 PM 59.5°F15.3°C 54.7°F12.6°C 84% 5.8 mph WSW9.3 kmh WSW 10.5 mph16.9 kmh 29.80 in1009.1 mb 0.00 in0.0 mm 0.00 in0.0 mm 0.04 in1.0 mm
05:23 PM 59.5°F15.3°C 54.3°F12.4°C 83% 4.0 mph SW6.4 kmh SW 9.6 mph15.4 kmh 29.81 in1009.5 mb 0.00 in0.0 mm 0.00 in0.0 mm 0.04 in1.0 mm
05:28 PM 59.4°F15.2°C 54.1°F12.3°C 83% 3.8 mph SW6.1 kmh SW 8.5 mph13.7 kmh 29.81 in1009.5 mb 0.00 in0.0 mm 0.00 in0.0 mm 0.04 in1.0 mm
05:33 PM 59.4°F15.2°C 54.5°F12.5°C 84% 3.4 mph SSW5.5 kmh SSW 7.4 mph11.9 kmh 29.81 in1009.5 mb 0.00 in0.0 mm 0.00 in0.0 mm 0.04 in1.0 mm
05:38 PM 59.4°F15.2°C 54.5°F12.5°C 84% 3.4 mph WNW5.5 kmh WNW 8.5 mph13.7 kmh 29.81 in1009.5 mb 0.00 in0.0 mm 0.00 in0.0 mm 0.04 in1.0 mm
05:43 PM 59.4°F15.2°C 54.5°F12.5°C 84% 2.9 mph SW4.7 kmh SW 8.5 mph13.7 kmh 29.82 in1009.8 mb 0.00 in0.0 mm 0.00 in0.0 mm 0.04 in1.0 mm
05:48 PM 59.2°F15.1°C 54.3°F12.4°C 84% 1.6 mph WSW2.6 kmh WSW 5.4 mph8.7 kmh 29.82 in1009.8 mb 0.00 in0.0 mm 0.00 in0.0 mm 0.04 in1.0 mm
05:53 PM 59.0°F15.0°C 54.1°F12.3°C 84% 2.7 mph W4.3 kmh W 6.3 mph10.1 kmh 29.82 in1009.8 mb 0.00 in0.0 mm 0.00 in0.0 mm 0.04 in1.0 mm
05:58 PM 59.0°F15.0°C 54.1°F12.3°C 84% 1.6 mph W2.6 kmh W 5.4 mph8.7 kmh 29.82 in1009.8 mb 0.00 in0.0 mm 0.00 in0.0 mm 0.04 in1.0 mm
06:03 PM 59.2°F15.1°C 54.0°F12.2°C 83% 1.6 mph WSW2.6 kmh WSW 4.3 mph6.9 kmh 29.82 in1009.8 mb 0.00 in0.0 mm 0.00 in0.0 mm 0.04 in1.0 mm
06:08 PM 59.2°F15.1°C 53.6°F12.0°C 82% 2.7 mph W4.3 kmh W 7.4 mph11.9 kmh 29.82 in1009.8 mb 0.00 in0.0 mm 0.00 in0.0 mm 0.04 in1.0 mm
06:13 PM 59.0°F15.0°C 53.2°F11.8°C 81% 2.0 mph SW3.2 kmh SW 5.4 mph8.7 kmh 29.82 in1009.8 mb 0.00 in0.0 mm 0.00 in0.0 mm 0.04 in1.0 mm
06:18 PM 59.0°F15.0°C 53.6°F12.0°C 82% 2.7 mph W4.3 kmh W 6.3 mph10.1 kmh 29.83 in1010.2 mb 0.00 in0.0 mm 0.00 in0.0 mm 0.04 in1.0 mm
06:23 PM 58.8°F14.9°C 53.4°F11.9°C 82% 2.7 mph SW4.3 kmh SW 6.3 mph10.1 kmh 29.83 in1010.2 mb 0.00 in0.0 mm 0.00 in0.0 mm 0.04 in1.0 mm
06:28 PM 58.8°F14.9°C 53.6°F12.0°C 83% 1.6 mph SW2.6 kmh SW 4.3 mph6.9 kmh 29.83 in1010.2 mb 0.00 in0.0 mm 0.00 in0.0 mm 0.04 in1.0 mm
06:33 PM 58.8°F14.9°C 53.6°F12.0°C 83% 2.7 mph SE4.3 kmh SE 6.3 mph10.1 kmh 29.83 in1010.2 mb 0.00 in0.0 mm 0.00 in0.0 mm 0.04 in1.0 mm
06:38 PM 58.8°F14.9°C 54.0°F12.2°C 84% 1.8 mph SW2.9 kmh SW 6.3 mph10.1 kmh 29.83 in1010.2 mb 0.00 in0.0 mm 0.00 in0.0 mm 0.04 in1.0 mm
06:43 PM 58.8°F14.9°C 54.0°F12.2°C 84% 0.9 mph SW1.4 kmh SW 4.3 mph6.9 kmh 29.83 in1010.2 mb 0.00 in0.0 mm 0.00 in0.0 mm 0.04 in1.0 mm
06:48 PM 58.8°F14.9°C 54.0°F12.2°C 84% 1.6 mph S2.6 kmh S 3.1 mph5.0 kmh 29.83 in1010.2 mb 0.00 in0.0 mm 0.00 in0.0 mm 0.04 in1.0 mm
06:53 PM 58.8°F14.9°C 54.0°F12.2°C 84% 4.5 mph W7.2 kmh W 8.5 mph13.7 kmh 29.84 in1010.5 mb 0.00 in0.0 mm 0.00 in0.0 mm 0.04 in1.0 mm
06:58 PM 58.6°F14.8°C 53.8°F12.1°C 84% 4.3 mph SW6.9 kmh SW 7.4 mph11.9 kmh 29.83 in1010.2 mb 0.00 in0.0 mm 0.00 in0.0 mm 0.04 in1.0 mm
07:03 PM 58.5°F14.7°C 54.0°F12.2°C 85% 3.8 mph S6.1 kmh S 8.5 mph13.7 kmh 29.84 in1010.5 mb 0.00 in0.0 mm 0.00 in0.0 mm 0.04 in1.0 mm
07:08 PM 58.5°F14.7°C 54.3°F12.4°C 86% 4.7 mph SW7.6 kmh SW 7.4 mph11.9 kmh 29.83 in1010.2 mb 0.00 in0.0 mm 0.00 in0.0 mm 0.04 in1.0 mm
07:13 PM 58.5°F14.7°C 54.7°F12.6°C 87% 3.6 mph SSW5.8 kmh SSW 8.5 mph13.7 kmh 29.84 in1010.5 mb 0.00 in0.0 mm 0.00 in0.0 mm 0.04 in1.0 mm
07:18 PM 58.3°F14.6°C 54.5°F12.5°C 87% 3.4 mph SSW5.5 kmh SSW 6.3 mph10.1 kmh 29.85 in1010.8 mb 0.00 in0.0 mm 0.00 in0.0 mm 0.04 in1.0 mm
07:23 PM 57.9°F14.4°C 54.1°F12.3°C 87% 2.9 mph S4.7 kmh S 7.4 mph11.9 kmh 29.85 in1010.8 mb 0.00 in0.0 mm 0.00 in0.0 mm 0.04 in1.0 mm
07:28 PM 57.7°F14.3°C 54.1°F12.3°C 88% 2.9 mph SW4.7 kmh SW 6.3 mph10.1 kmh 29.85 in1010.8 mb 0.00 in0.0 mm 0.00 in0.0 mm 0.04 in1.0 mm
07:33 PM 57.6°F14.2°C 54.0°F12.2°C 88% 1.6 mph WSW2.6 kmh WSW 6.3 mph10.1 kmh 29.85 in1010.8 mb 0.00 in0.0 mm 0.00 in0.0 mm 0.04 in1.0 mm
07:38 PM 57.6°F14.2°C 54.3°F12.4°C 89% 1.3 mph SW2.1 kmh SW 3.1 mph5.0 kmh 29.85 in1010.8 mb 0.00 in0.0 mm 0.00 in0.0 mm 0.04 in1.0 mm
07:43 PM 57.6°F14.2°C 54.3°F12.4°C 89% 0.7 mph SW1.1 kmh SW 4.3 mph6.9 kmh 29.85 in1010.8 mb 0.00 in0.0 mm 0.00 in0.0 mm 0.04 in1.0 mm
07:48 PM 57.6°F14.2°C 54.3°F12.4°C 89% 1.1 mph SW1.8 kmh SW 3.1 mph5.0 kmh 29.85 in1010.8 mb 0.00 in0.0 mm 0.00 in0.0 mm 0.04 in1.0 mm
07:53 PM 57.6°F14.2°C 54.7°F12.6°C 90% Calm Calm 2.0 mph3.2 kmh 29.86 in1011.2 mb 0.00 in0.0 mm 0.00 in0.0 mm 0.04 in1.0 mm
07:58 PM 57.6°F14.2°C 54.7°F12.6°C 90% 0.4 mph SSW0.6 kmh SSW 2.0 mph3.2 kmh 29.86 in1011.2 mb 0.00 in0.0 mm 0.00 in0.0 mm 0.04 in1.0 mm
08:03 PM 57.6°F14.2°C 54.7°F12.6°C 90% 0.2 mph SW0.3 kmh SW 2.0 mph3.2 kmh 29.87 in1011.5 mb 0.00 in0.0 mm 0.00 in0.0 mm 0.04 in1.0 mm
08:08 PM 57.6°F14.2°C 54.7°F12.6°C 90% 1.1 mph SSW1.8 kmh SSW 2.0 mph3.2 kmh 29.87 in1011.5 mb 0.00 in0.0 mm 0.00 in0.0 mm 0.04 in1.0 mm
08:13 PM 57.6°F14.2°C 54.7°F12.6°C 90% 0.4 mph SSE0.6 kmh SSE 2.0 mph3.2 kmh 29.87 in1011.5 mb 0.00 in0.0 mm 0.00 in0.0 mm 0.04 in1.0 mm
08:18 PM 57.7°F14.3°C 54.9°F12.7°C 90% 0.7 mph SW1.1 kmh SW 2.0 mph3.2 kmh 29.87 in1011.5 mb 0.00 in0.0 mm 0.00 in0.0 mm 0.04 in1.0 mm
08:23 PM 57.7°F14.3°C 54.9°F12.7°C 90% 0.7 mph SW1.1 kmh SW 2.0 mph3.2 kmh 29.87 in1011.5 mb 0.00 in0.0 mm 0.00 in0.0 mm 0.04 in1.0 mm
08:28 PM 57.7°F14.3°C 54.9°F12.7°C 90% 1.1 mph S1.8 kmh S 4.3 mph6.9 kmh 29.87 in1011.5 mb 0.00 in0.0 mm 0.00 in0.0 mm 0.04 in1.0 mm
08:33 PM 57.7°F14.3°C 54.9°F12.7°C 90% 0.9 mph SW1.4 kmh SW 4.3 mph6.9 kmh 29.87 in1011.5 mb 0.00 in0.0 mm 0.00 in0.0 mm 0.04 in1.0 mm
08:38 PM 57.9°F14.4°C 55.0°F12.8°C 90% 1.8 mph SW2.9 kmh SW 3.1 mph5.0 kmh 29.88 in1011.9 mb 0.00 in0.0 mm 0.00 in0.0 mm 0.04 in1.0 mm
08:43 PM 57.9°F14.4°C 55.0°F12.8°C 90% 1.1 mph SSW1.8 kmh SSW 3.1 mph5.0 kmh 29.88 in1011.9 mb 0.00 in0.0 mm 0.00 in0.0 mm 0.04 in1.0 mm
08:48 PM 57.9°F14.4°C 55.0°F12.8°C 90% 1.1 mph SW1.8 kmh SW 3.1 mph5.0 kmh 29.88 in1011.9 mb 0.00 in0.0 mm 0.00 in0.0 mm 0.04 in1.0 mm
08:53 PM 57.9°F14.4°C 55.0°F12.8°C 90% 0.2 mph SW0.3 kmh SW 2.0 mph3.2 kmh 29.87 in1011.5 mb 0.00 in0.0 mm 0.00 in0.0 mm 0.04 in1.0 mm
08:58 PM 57.7°F14.3°C 54.9°F12.7°C 90% 0.2 mph SW0.3 kmh SW 2.0 mph3.2 kmh 29.88 in1011.9 mb 0.00 in0.0 mm 0.00 in0.0 mm 0.04 in1.0 mm
09:03 PM 57.7°F14.3°C 54.9°F12.7°C 90% 0.4 mph SE0.6 kmh SE 2.0 mph3.2 kmh 29.87 in1011.5 mb 0.00 in0.0 mm 0.00 in0.0 mm 0.04 in1.0 mm
09:08 PM 57.6°F14.2°C 54.7°F12.6°C 90% 0.2 mph SE0.3 kmh SE 2.0 mph3.2 kmh 29.88 in1011.9 mb 0.00 in0.0 mm 0.00 in0.0 mm 0.04 in1.0 mm
09:13 PM 57.6°F14.2°C 54.7°F12.6°C 90% Calm Calm 3.1 mph5.0 kmh 29.87 in1011.5 mb 0.00 in0.0 mm 0.00 in0.0 mm 0.04 in1.0 mm
09:18 PM 57.6°F14.2°C 54.7°F12.6°C 90% 0.2 mph SE0.3 kmh SE 1.1 mph1.8 kmh 29.87 in1011.5 mb 0.00 in0.0 mm 0.00 in0.0 mm 0.04 in1.0 mm
09:23 PM 57.4°F14.1°C 54.5°F12.5°C 90% Calm Calm 1.1 mph1.8 kmh 29.88 in1011.9 mb 0.00 in0.0 mm 0.00 in0.0 mm 0.04 in1.0 mm
09:28 PM 57.4°F14.1°C 54.5°F12.5°C 90% Calm Calm 2.0 mph3.2 kmh 29.87 in1011.5 mb 0.00 in0.0 mm 0.00 in0.0 mm 0.04 in1.0 mm
09:33 PM 57.2°F14.0°C 54.3°F12.4°C 90% Calm Calm -- 29.87 in1011.5 mb 0.00 in0.0 mm 0.00 in0.0 mm 0.04 in1.0 mm
09:38 PM 57.0°F13.9°C 54.1°F12.3°C 90% Calm Calm -- 29.87 in1011.5 mb 0.00 in0.0 mm 0.00 in0.0 mm 0.04 in1.0 mm
09:43 PM 56.8°F13.8°C 54.3°F12.4°C 91% 0.2 mph SE0.3 kmh SE 1.1 mph1.8 kmh 29.87 in1011.5 mb 0.00 in0.0 mm 0.00 in0.0 mm 0.04 in1.0 mm
09:48 PM 56.8°F13.8°C 54.3°F12.4°C 91% Calm Calm -- 29.87 in1011.5 mb 0.00 in0.0 mm 0.00 in0.0 mm 0.04 in1.0 mm
09:53 PM 56.7°F13.7°C 54.1°F12.3°C 91% Calm Calm -- 29.87 in1011.5 mb 0.00 in0.0 mm 0.00 in0.0 mm 0.04 in1.0 mm
09:58 PM 56.5°F13.6°C 54.0°F12.2°C 91% Calm Calm -- 29.87 in1011.5 mb 0.00 in0.0 mm 0.00 in0.0 mm 0.04 in1.0 mm
10:03 PM 56.3°F13.5°C 53.8°F12.1°C 91% Calm Calm -- 29.87 in1011.5 mb 0.00 in0.0 mm 0.00 in0.0 mm 0.04 in1.0 mm
10:08 PM 55.9°F13.3°C 53.4°F11.9°C 91% Calm Calm -- 29.87 in1011.5 mb 0.00 in0.0 mm 0.00 in0.0 mm 0.04 in1.0 mm
10:13 PM 55.8°F13.2°C 53.2°F11.8°C 91% Calm Calm -- 29.88 in1011.9 mb 0.00 in0.0 mm 0.00 in0.0 mm 0.04 in1.0 mm
10:18 PM 55.8°F13.2°C 53.4°F11.9°C 92% Calm Calm -- 29.87 in1011.5 mb 0.00 in0.0 mm 0.00 in0.0 mm 0.04 in1.0 mm
10:23 PM 55.8°F13.2°C 53.4°F11.9°C 92% Calm Calm -- 29.87 in1011.5 mb 0.00 in0.0 mm 0.00 in0.0 mm 0.04 in1.0 mm
10:28 PM 55.4°F13.0°C 52.9°F11.6°C 91% Calm Calm -- 29.87 in1011.5 mb 0.00 in0.0 mm 0.00 in0.0 mm 0.04 in1.0 mm
10:33 PM 55.2°F12.9°C 52.9°F11.6°C 92% Calm Calm -- 29.87 in1011.5 mb 0.00 in0.0 mm 0.00 in0.0 mm 0.04 in1.0 mm
10:38 PM 55.0°F12.8°C 52.7°F11.5°C 92% Calm Calm -- 29.87 in1011.5 mb 0.00 in0.0 mm 0.00 in0.0 mm 0.04 in1.0 mm
10:43 PM 55.0°F12.8°C 52.7°F11.5°C 92% Calm Calm -- 29.87 in1011.5 mb 0.00 in0.0 mm 0.00 in0.0 mm 0.04 in1.0 mm
10:48 PM 54.9°F12.7°C 52.5°F11.4°C 92% Calm Calm -- 29.87 in1011.5 mb 0.00 in0.0 mm 0.00 in0.0 mm 0.04 in1.0 mm
10:53 PM 54.9°F12.7°C 52.9°F11.6°C 93% Calm Calm -- 29.88 in1011.9 mb 0.00 in0.0 mm 0.00 in0.0 mm 0.04 in1.0 mm
10:58 PM 54.9°F12.7°C 52.9°F11.6°C 93% Calm Calm -- 29.88 in1011.9 mb 0.00 in0.0 mm 0.00 in0.0 mm 0.04 in1.0 mm
11:03 PM 54.9°F12.7°C 52.9°F11.6°C 93% Calm Calm -- 29.88 in1011.9 mb 0.00 in0.0 mm 0.00 in0.0 mm 0.04 in1.0 mm
11:08 PM 54.9°F12.7°C 52.9°F11.6°C 93% Calm Calm -- 29.87 in1011.5 mb 0.00 in0.0 mm 0.00 in0.0 mm 0.04 in1.0 mm
11:13 PM 54.9°F12.7°C 52.9°F11.6°C 93% Calm Calm -- 29.88 in1011.9 mb 0.00 in0.0 mm 0.00 in0.0 mm 0.04 in1.0 mm
11:18 PM 54.9°F12.7°C 52.9°F11.6°C 93% Calm Calm -- 29.87 in1011.5 mb 0.00 in0.0 mm 0.00 in0.0 mm 0.04 in1.0 mm
11:23 PM 54.9°F12.7°C 52.9°F11.6°C 93% Calm Calm -- 29.87 in1011.5 mb 0.00 in0.0 mm 0.00 in0.0 mm 0.04 in1.0 mm
11:28 PM 54.9°F12.7°C 52.9°F11.6°C 93% Calm Calm -- 29.88 in1011.9 mb 0.00 in0.0 mm 0.00 in0.0 mm 0.04 in1.0 mm
11:33 PM 54.7°F12.6°C 52.7°F11.5°C 93% Calm Calm -- 29.88 in1011.9 mb 0.00 in0.0 mm 0.00 in0.0 mm 0.04 in1.0 mm
11:38 PM 54.7°F12.6°C 52.7°F11.5°C 93% Calm Calm -- 29.88 in1011.9 mb 0.00 in0.0 mm 0.00 in0.0 mm 0.04 in1.0 mm
11:43 PM 54.7°F12.6°C 52.7°F11.5°C 93% Calm Calm -- 29.88 in1011.9 mb 0.00 in0.0 mm 0.00 in0.0 mm 0.04 in1.0 mm
11:48 PM 54.7°F12.6°C 52.7°F11.5°C 93% Calm Calm -- 29.88 in1011.9 mb 0.00 in0.0 mm 0.00 in0.0 mm 0.04 in1.0 mm
11:53 PM 54.7°F12.6°C 52.7°F11.5°C 93% Calm Calm -- 29.88 in1011.9 mb 0.00 in0.0 mm 0.00 in0.0 mm 0.04 in1.0 mm
11:58 PM 54.7°F12.6°C 52.7°F11.5°C 93% Calm Calm -- 29.88 in1011.9 mb 0.00 in0.0 mm 0.00 in0.0 mm 0.04 in1.0 mm